sensor_id;sensor_type;location;lat;lon;timestamp;temperature;humidity
831;DHT22;397;50.564;7.272;2023-05-07T00:01:05;13.70;99.90
831;DHT22;397;50.564;7.272;2023-05-07T00:03:33;13.70;99.90
831;DHT22;397;50.564;7.272;2023-05-07T00:06:00;13.70;99.90
831;DHT22;397;50.564;7.272;2023-05-07T00:08:28;13.70;99.90
831;DHT22;397;50.564;7.272;2023-05-07T00:10:55;13.60;99.90
831;DHT22;397;50.564;7.272;2023-05-07T00:13:23;13.60;99.90
831;DHT22;397;50.564;7.272;2023-05-07T00:15:50;13.60;99.90
831;DHT22;397;50.564;7.272;2023-05-07T00:18:18;13.50;99.90
831;DHT22;397;50.564;7.272;2023-05-07T00:20:47;13.50;99.90
831;DHT22;397;50.564;7.272;2023-05-07T00:23:15;13.50;99.90
831;DHT22;397;50.564;7.272;2023-05-07T00:25:42;13.60;99.90
831;DHT22;397;50.564;7.272;2023-05-07T00:28:10;13.60;99.90
831;DHT22;397;50.564;7.272;2023-05-07T00:30:37;13.60;99.90
831;DHT22;397;50.564;7.272;2023-05-07T00:33:05;13.60;99.90
831;DHT22;397;50.564;7.272;2023-05-07T00:35:32;13.60;99.90
831;DHT22;397;50.564;7.272;2023-05-07T00:38:00;13.60;99.90
831;DHT22;397;50.564;7.272;2023-05-07T00:40:27;13.60;99.90
831;DHT22;397;50.564;7.272;2023-05-07T00:42:55;13.70;99.90
831;DHT22;397;50.564;7.272;2023-05-07T00:45:28;13.70;99.90
831;DHT22;397;50.564;7.272;2023-05-07T00:47:59;13.70;99.90
831;DHT22;397;50.564;7.272;2023-05-07T00:50:28;13.70;99.90
831;DHT22;397;50.564;7.272;2023-05-07T00:52:57;13.70;99.90
831;DHT22;397;50.564;7.272;2023-05-07T00:55:24;13.80;99.90
831;DHT22;397;50.564;7.272;2023-05-07T00:57:52;13.80;99.90
831;DHT22;397;50.564;7.272;2023-05-07T01:00:19;13.80;99.90
831;DHT22;397;50.564;7.272;2023-05-07T01:02:47;13.80;99.90
831;DHT22;397;50.564;7.272;2023-05-07T01:05:16;13.80;99.90
831;DHT22;397;50.564;7.272;2023-05-07T01:07:44;13.80;99.90
831;DHT22;397;50.564;7.272;2023-05-07T01:10:12;13.80;99.90
831;DHT22;397;50.564;7.272;2023-05-07T01:12:41;13.80;99.90
831;DHT22;397;50.564;7.272;2023-05-07T01:15:09;13.80;99.90
831;DHT22;397;50.564;7.272;2023-05-07T01:17:39;13.80;99.90
831;DHT22;397;50.564;7.272;2023-05-07T01:20:08;13.70;99.90
831;DHT22;397;50.564;7.272;2023-05-07T01:22:40;13.60;99.90
831;DHT22;397;50.564;7.272;2023-05-07T01:25:07;13.70;99.90
831;DHT22;397;50.564;7.272;2023-05-07T01:27:35;13.70;99.90
831;DHT22;397;50.564;7.272;2023-05-07T01:30:05;13.70;99.90
831;DHT22;397;50.564;7.272;2023-05-07T01:32:43;13.70;99.90
831;DHT22;397;50.564;7.272;2023-05-07T01:35:15;13.60;99.90
831;DHT22;397;50.564;7.272;2023-05-07T01:37:43;13.70;99.90
831;DHT22;397;50.564;7.272;2023-05-07T01:40:11;13.70;99.90
831;DHT22;397;50.564;7.272;2023-05-07T01:42:39;13.70;99.90
831;DHT22;397;50.564;7.272;2023-05-07T01:45:08;13.60;99.90
831;DHT22;397;50.564;7.272;2023-05-07T01:47:37;13.60;99.90
831;DHT22;397;50.564;7.272;2023-05-07T01:50:07;13.60;99.90
831;DHT22;397;50.564;7.272;2023-05-07T01:52:38;13.60;99.90
831;DHT22;397;50.564;7.272;2023-05-07T01:55:06;13.60;99.90
831;DHT22;397;50.564;7.272;2023-05-07T01:57:34;13.70;99.90
831;DHT22;397;50.564;7.272;2023-05-07T02:00:04;13.70;99.90
831;DHT22;397;50.564;7.272;2023-05-07T02:02:31;13.70;99.90
831;DHT22;397;50.564;7.272;2023-05-07T02:05:00;13.60;99.90
831;DHT22;397;50.564;7.272;2023-05-07T02:07:30;13.70;99.90
831;DHT22;397;50.564;7.272;2023-05-07T02:09:58;13.60;99.90
831;DHT22;397;50.564;7.272;2023-05-07T02:12:25;13.70;99.90
831;DHT22;397;50.564;7.272;2023-05-07T02:14:53;13.70;99.90
831;DHT22;397;50.564;7.272;2023-05-07T02:17:21;13.70;99.90
831;DHT22;397;50.564;7.272;2023-05-07T02:19:49;13.70;99.90
831;DHT22;397;50.564;7.272;2023-05-07T02:22:16;13.80;99.90
831;DHT22;397;50.564;7.272;2023-05-07T02:24:43;13.70;99.90
831;DHT22;397;50.564;7.272;2023-05-07T02:27:11;13.80;99.90
831;DHT22;397;50.564;7.272;2023-05-07T02:29:38;13.80;99.90
831;DHT22;397;50.564;7.272;2023-05-07T02:32:06;13.70;99.90
831;DHT22;397;50.564;7.272;2023-05-07T02:34:34;13.60;99.90
831;DHT22;397;50.564;7.272;2023-05-07T02:37:01;13.60;99.90
831;DHT22;397;50.564;7.272;2023-05-07T02:39:29;13.60;99.90
831;DHT22;397;50.564;7.272;2023-05-07T02:41:56;13.70;99.90
831;DHT22;397;50.564;7.272;2023-05-07T02:44:24;13.70;99.90
831;DHT22;397;50.564;7.272;2023-05-07T02:46:51;13.70;99.90
831;DHT22;397;50.564;7.272;2023-05-07T02:49:19;13.60;99.90
831;DHT22;397;50.564;7.272;2023-05-07T02:51:47;13.70;99.90
831;DHT22;397;50.564;7.272;2023-05-07T02:54:14;13.60;99.90
831;DHT22;397;50.564;7.272;2023-05-07T02:56:42;13.70;99.90
831;DHT22;397;50.564;7.272;2023-05-07T02:59:09;13.60;99.90
831;DHT22;397;50.564;7.272;2023-05-07T03:01:37;13.60;99.90
831;DHT22;397;50.564;7.272;2023-05-07T03:04:04;13.60;99.90
831;DHT22;397;50.564;7.272;2023-05-07T03:06:32;13.60;99.90
831;DHT22;397;50.564;7.272;2023-05-07T03:08:59;13.70;99.90
831;DHT22;397;50.564;7.272;2023-05-07T03:11:27;13.70;99.90
831;DHT22;397;50.564;7.272;2023-05-07T03:13:54;13.70;99.90
831;DHT22;397;50.564;7.272;2023-05-07T03:16:22;13.60;99.90
831;DHT22;397;50.564;7.272;2023-05-07T03:18:50;13.60;99.90
831;DHT22;397;50.564;7.272;2023-05-07T03:21:17;13.50;99.90
831;DHT22;397;50.564;7.272;2023-05-07T03:23:45;13.50;99.90
831;DHT22;397;50.564;7.272;2023-05-07T03:26:12;13.50;99.90
831;DHT22;397;50.564;7.272;2023-05-07T03:28:40;13.50;99.90
831;DHT22;397;50.564;7.272;2023-05-07T03:31:07;13.50;99.90
831;DHT22;397;50.564;7.272;2023-05-07T03:33:35;13.60;99.90
831;DHT22;397;50.564;7.272;2023-05-07T03:36:02;13.60;99.90
831;DHT22;397;50.564;7.272;2023-05-07T03:38:30;13.60;99.90
831;DHT22;397;50.564;7.272;2023-05-07T03:40:58;13.50;99.90
831;DHT22;397;50.564;7.272;2023-05-07T03:43:25;13.50;99.90
831;DHT22;397;50.564;7.272;2023-05-07T03:45:53;13.50;99.90
831;DHT22;397;50.564;7.272;2023-05-07T03:48:21;13.50;99.90
831;DHT22;397;50.564;7.272;2023-05-07T03:50:48;13.50;99.90
831;DHT22;397;50.564;7.272;2023-05-07T03:53:16;13.50;99.90
831;DHT22;397;50.564;7.272;2023-05-07T03:55:43;13.60;99.90
831;DHT22;397;50.564;7.272;2023-05-07T03:58:11;13.60;99.90
831;DHT22;397;50.564;7.272;2023-05-07T04:00:38;13.60;99.90
831;DHT22;397;50.564;7.272;2023-05-07T04:03:07;13.60;99.90
831;DHT22;397;50.564;7.272;2023-05-07T04:05:34;13.60;99.90
831;DHT22;397;50.564;7.272;2023-05-07T04:08:02;13.60;99.90
831;DHT22;397;50.564;7.272;2023-05-07T04:10:29;13.60;99.90
831;DHT22;397;50.564;7.272;2023-05-07T04:12:57;13.60;99.90
831;DHT22;397;50.564;7.272;2023-05-07T04:15:24;13.50;99.90
831;DHT22;397;50.564;7.272;2023-05-07T04:17:52;13.50;99.90
831;DHT22;397;50.564;7.272;2023-05-07T04:20:19;13.60;99.90
831;DHT22;397;50.564;7.272;2023-05-07T04:22:47;13.50;99.90
831;DHT22;397;50.564;7.272;2023-05-07T04:25:16;13.60;99.90
831;DHT22;397;50.564;7.272;2023-05-07T04:27:43;13.60;99.90
831;DHT22;397;50.564;7.272;2023-05-07T04:30:12;13.70;99.90
831;DHT22;397;50.564;7.272;2023-05-07T04:32:40;13.70;99.90
831;DHT22;397;50.564;7.272;2023-05-07T04:35:07;13.80;99.90
831;DHT22;397;50.564;7.272;2023-05-07T04:37:35;13.80;99.90
831;DHT22;397;50.564;7.272;2023-05-07T04:40:03;13.90;99.90
831;DHT22;397;50.564;7.272;2023-05-07T04:42:30;13.90;99.90
831;DHT22;397;50.564;7.272;2023-05-07T04:44:58;13.90;99.90
831;DHT22;397;50.564;7.272;2023-05-07T04:47:26;14.00;99.90
831;DHT22;397;50.564;7.272;2023-05-07T04:49:53;14.10;99.90
831;DHT22;397;50.564;7.272;2023-05-07T04:52:21;14.10;99.90
831;DHT22;397;50.564;7.272;2023-05-07T04:54:49;14.00;99.90
831;DHT22;397;50.564;7.272;2023-05-07T04:57:16;14.10;99.90
831;DHT22;397;50.564;7.272;2023-05-07T04:59:44;14.10;99.90
831;DHT22;397;50.564;7.272;2023-05-07T05:02:12;14.10;99.90
831;DHT22;397;50.564;7.272;2023-05-07T05:04:39;14.20;99.90
831;DHT22;397;50.564;7.272;2023-05-07T05:07:07;14.30;99.90
831;DHT22;397;50.564;7.272;2023-05-07T05:09:34;14.20;99.90
831;DHT22;397;50.564;7.272;2023-05-07T05:12:02;14.40;99.90
831;DHT22;397;50.564;7.272;2023-05-07T05:14:29;14.50;99.90
831;DHT22;397;50.564;7.272;2023-05-07T05:16:57;14.50;99.90
831;DHT22;397;50.564;7.272;2023-05-07T05:19:24;14.70;99.90
831;DHT22;397;50.564;7.272;2023-05-07T05:21:52;14.70;99.90
831;DHT22;397;50.564;7.272;2023-05-07T05:24:19;14.90;99.90
831;DHT22;397;50.564;7.272;2023-05-07T05:26:47;15.00;99.90
831;DHT22;397;50.564;7.272;2023-05-07T05:29:14;15.00;99.90
831;DHT22;397;50.564;7.272;2023-05-07T05:31:42;15.20;99.90
831;DHT22;397;50.564;7.272;2023-05-07T05:34:09;15.40;99.90
831;DHT22;397;50.564;7.272;2023-05-07T05:36:37;15.70;99.90
831;DHT22;397;50.564;7.272;2023-05-07T05:39:04;16.20;99.90
831;DHT22;397;50.564;7.272;2023-05-07T05:41:32;17.50;99.90
831;DHT22;397;50.564;7.272;2023-05-07T05:43:59;18.30;99.90
831;DHT22;397;50.564;7.272;2023-05-07T05:46:27;18.20;99.90
831;DHT22;397;50.564;7.272;2023-05-07T05:48:54;18.10;99.90
831;DHT22;397;50.564;7.272;2023-05-07T05:51:22;18.30;99.90
831;DHT22;397;50.564;7.272;2023-05-07T05:53:50;18.30;99.90
831;DHT22;397;50.564;7.272;2023-05-07T05:56:17;19.20;99.90
831;DHT22;397;50.564;7.272;2023-05-07T05:58:45;20.40;99.90
831;DHT22;397;50.564;7.272;2023-05-07T06:01:32;21.70;99.90
831;DHT22;397;50.564;7.272;2023-05-07T06:04:00;22.80;99.90
831;DHT22;397;50.564;7.272;2023-05-07T06:06:27;22.10;99.90
831;DHT22;397;50.564;7.272;2023-05-07T06:08:55;21.20;99.90
831;DHT22;397;50.564;7.272;2023-05-07T06:11:22;20.50;99.90
831;DHT22;397;50.564;7.272;2023-05-07T06:13:50;20.30;99.90
831;DHT22;397;50.564;7.272;2023-05-07T06:16:17;19.30;99.90
831;DHT22;397;50.564;7.272;2023-05-07T06:18:45;19.10;99.90
831;DHT22;397;50.564;7.272;2023-05-07T06:21:14;18.90;99.90
831;DHT22;397;50.564;7.272;2023-05-07T06:23:41;18.50;99.90
831;DHT22;397;50.564;7.272;2023-05-07T06:26:09;18.00;99.90
831;DHT22;397;50.564;7.272;2023-05-07T06:28:36;17.50;99.90
831;DHT22;397;50.564;7.272;2023-05-07T06:31:17;17.20;99.90
831;DHT22;397;50.564;7.272;2023-05-07T06:33:47;17.20;99.90
831;DHT22;397;50.564;7.272;2023-05-07T06:36:15;17.20;99.90
831;DHT22;397;50.564;7.272;2023-05-07T06:38:42;17.20;99.90
831;DHT22;397;50.564;7.272;2023-05-07T06:41:10;17.10;99.90
831;DHT22;397;50.564;7.272;2023-05-07T06:43:37;17.10;99.90
831;DHT22;397;50.564;7.272;2023-05-07T06:46:05;17.10;99.90
831;DHT22;397;50.564;7.272;2023-05-07T06:48:32;16.90;99.90
831;DHT22;397;50.564;7.272;2023-05-07T06:51:00;16.90;99.90
831;DHT22;397;50.564;7.272;2023-05-07T06:53:27;16.90;99.90
831;DHT22;397;50.564;7.272;2023-05-07T06:55:57;16.80;99.90
831;DHT22;397;50.564;7.272;2023-05-07T06:58:24;16.90;99.90
831;DHT22;397;50.564;7.272;2023-05-07T07:00:52;17.10;99.90
831;DHT22;397;50.564;7.272;2023-05-07T07:03:19;17.20;99.90
831;DHT22;397;50.564;7.272;2023-05-07T07:05:47;17.20;99.90
831;DHT22;397;50.564;7.272;2023-05-07T07:08:14;17.20;99.90
831;DHT22;397;50.564;7.272;2023-05-07T07:10:43;17.30;99.90
831;DHT22;397;50.564;7.272;2023-05-07T07:13:11;17.60;99.90
831;DHT22;397;50.564;7.272;2023-05-07T07:15:38;17.50;99.90
831;DHT22;397;50.564;7.272;2023-05-07T07:18:06;17.60;99.90
831;DHT22;397;50.564;7.272;2023-05-07T07:20:34;17.60;99.90
831;DHT22;397;50.564;7.272;2023-05-07T07:23:01;17.70;99.90
831;DHT22;397;50.564;7.272;2023-05-07T07:25:29;18.00;99.90
831;DHT22;397;50.564;7.272;2023-05-07T07:27:56;18.10;99.90
831;DHT22;397;50.564;7.272;2023-05-07T07:30:24;18.10;99.90
831;DHT22;397;50.564;7.272;2023-05-07T07:32:52;18.20;99.90
831;DHT22;397;50.564;7.272;2023-05-07T07:35:20;18.20;99.90
831;DHT22;397;50.564;7.272;2023-05-07T07:37:49;18.30;99.90
831;DHT22;397;50.564;7.272;2023-05-07T07:40:16;18.40;99.90
831;DHT22;397;50.564;7.272;2023-05-07T07:42:44;18.70;99.90
831;DHT22;397;50.564;7.272;2023-05-07T07:45:11;18.70;99.90
831;DHT22;397;50.564;7.272;2023-05-07T07:47:42;18.70;99.90
831;DHT22;397;50.564;7.272;2023-05-07T07:50:10;18.90;99.90
831;DHT22;397;50.564;7.272;2023-05-07T07:52:37;18.90;99.90
831;DHT22;397;50.564;7.272;2023-05-07T07:55:09;19.00;99.90
831;DHT22;397;50.564;7.272;2023-05-07T07:57:37;18.80;99.90
831;DHT22;397;50.564;7.272;2023-05-07T08:00:05;18.80;99.90
831;DHT22;397;50.564;7.272;2023-05-07T08:02:33;18.70;99.90
831;DHT22;397;50.564;7.272;2023-05-07T08:05:01;18.80;99.90
831;DHT22;397;50.564;7.272;2023-05-07T08:07:28;18.90;99.90
831;DHT22;397;50.564;7.272;2023-05-07T08:09:56;19.10;99.90
831;DHT22;397;50.564;7.272;2023-05-07T08:12:24;19.20;99.90
831;DHT22;397;50.564;7.272;2023-05-07T08:14:51;19.20;99.90
831;DHT22;397;50.564;7.272;2023-05-07T08:17:19;19.10;99.90
831;DHT22;397;50.564;7.272;2023-05-07T08:19:48;19.00;99.90
831;DHT22;397;50.564;7.272;2023-05-07T08:22:16;19.10;99.90
831;DHT22;397;50.564;7.272;2023-05-07T08:24:44;19.00;99.90
831;DHT22;397;50.564;7.272;2023-05-07T08:27:12;18.90;99.90
831;DHT22;397;50.564;7.272;2023-05-07T08:29:39;18.90;99.90
831;DHT22;397;50.564;7.272;2023-05-07T08:32:07;19.00;99.90
831;DHT22;397;50.564;7.272;2023-05-07T08:34:34;19.20;99.90
831;DHT22;397;50.564;7.272;2023-05-07T08:37:02;19.30;99.90
831;DHT22;397;50.564;7.272;2023-05-07T08:39:29;19.30;99.90
831;DHT22;397;50.564;7.272;2023-05-07T08:42:00;19.20;99.90
831;DHT22;397;50.564;7.272;2023-05-07T08:44:34;19.20;99.90
831;DHT22;397;50.564;7.272;2023-05-07T08:47:02;19.50;99.90
831;DHT22;397;50.564;7.272;2023-05-07T08:49:29;19.60;99.90
831;DHT22;397;50.564;7.272;2023-05-07T08:51:57;19.40;99.90
831;DHT22;397;50.564;7.272;2023-05-07T08:54:25;19.50;99.90
831;DHT22;397;50.564;7.272;2023-05-07T08:56:53;19.70;99.90
831;DHT22;397;50.564;7.272;2023-05-07T08:59:21;19.90;99.90
831;DHT22;397;50.564;7.272;2023-05-07T09:01:48;20.00;99.90
831;DHT22;397;50.564;7.272;2023-05-07T09:04:16;20.20;99.90
831;DHT22;397;50.564;7.272;2023-05-07T09:06:44;20.60;99.90
831;DHT22;397;50.564;7.272;2023-05-07T09:09:14;20.60;99.90
831;DHT22;397;50.564;7.272;2023-05-07T09:11:41;20.70;99.90
831;DHT22;397;50.564;7.272;2023-05-07T09:14:09;20.70;99.90
831;DHT22;397;50.564;7.272;2023-05-07T09:16:36;20.90;99.90
831;DHT22;397;50.564;7.272;2023-05-07T09:19:05;21.10;99.90
831;DHT22;397;50.564;7.272;2023-05-07T09:21:32;21.30;99.90
831;DHT22;397;50.564;7.272;2023-05-07T09:24:00;21.20;99.90
831;DHT22;397;50.564;7.272;2023-05-07T09:26:27;21.40;99.90
831;DHT22;397;50.564;7.272;2023-05-07T09:28:55;21.70;99.90
831;DHT22;397;50.564;7.272;2023-05-07T09:31:22;22.00;99.90
831;DHT22;397;50.564;7.272;2023-05-07T09:33:52;22.20;99.90
831;DHT22;397;50.564;7.272;2023-05-07T09:36:22;22.10;99.90
831;DHT22;397;50.564;7.272;2023-05-07T09:38:50;22.10;99.90
831;DHT22;397;50.564;7.272;2023-05-07T09:41:17;21.80;99.90
831;DHT22;397;50.564;7.272;2023-05-07T09:43:45;21.90;99.90
831;DHT22;397;50.564;7.272;2023-05-07T09:46:14;21.60;99.90
831;DHT22;397;50.564;7.272;2023-05-07T09:48:44;21.50;99.90
831;DHT22;397;50.564;7.272;2023-05-07T09:51:24;21.60;99.90
831;DHT22;397;50.564;7.272;2023-05-07T09:53:54;21.50;99.90
831;DHT22;397;50.564;7.272;2023-05-07T09:56:23;21.40;99.90
831;DHT22;397;50.564;7.272;2023-05-07T09:58:53;21.70;99.90
831;DHT22;397;50.564;7.272;2023-05-07T10:01:22;21.80;99.90
831;DHT22;397;50.564;7.272;2023-05-07T10:03:51;22.20;99.90
831;DHT22;397;50.564;7.272;2023-05-07T10:06:23;22.40;99.90
831;DHT22;397;50.564;7.272;2023-05-07T10:08:52;22.50;99.90
831;DHT22;397;50.564;7.272;2023-05-07T10:11:20;22.50;99.90
831;DHT22;397;50.564;7.272;2023-05-07T10:13:49;22.50;99.90
831;DHT22;397;50.564;7.272;2023-05-07T10:16:17;22.60;99.90
831;DHT22;397;50.564;7.272;2023-05-07T10:18:46;22.60;99.90
831;DHT22;397;50.564;7.272;2023-05-07T10:21:23;22.50;99.90
831;DHT22;397;50.564;7.272;2023-05-07T10:23:58;22.60;99.90
831;DHT22;397;50.564;7.272;2023-05-07T10:26:25;22.60;99.90
831;DHT22;397;50.564;7.272;2023-05-07T10:28:58;22.50;99.90
831;DHT22;397;50.564;7.272;2023-05-07T10:34:15;22.80;99.90
831;DHT22;397;50.564;7.272;2023-05-07T10:36:44;22.60;99.90
831;DHT22;397;50.564;7.272;2023-05-07T10:39:11;22.80;99.90
831;DHT22;397;50.564;7.272;2023-05-07T10:41:40;22.90;99.90
831;DHT22;397;50.564;7.272;2023-05-07T10:44:07;23.00;99.90
831;DHT22;397;50.564;7.272;2023-05-07T10:46:35;23.20;99.90
831;DHT22;397;50.564;7.272;2023-05-07T10:51:34;23.30;99.90
831;DHT22;397;50.564;7.272;2023-05-07T10:56:42;23.50;99.90
831;DHT22;397;50.564;7.272;2023-05-07T10:59:30;23.70;99.90
831;DHT22;397;50.564;7.272;2023-05-07T11:02:02;23.80;99.90
831;DHT22;397;50.564;7.272;2023-05-07T11:04:32;23.80;99.90
831;DHT22;397;50.564;7.272;2023-05-07T11:09:59;24.00;99.90
831;DHT22;397;50.564;7.272;2023-05-07T11:15:13;24.30;99.90
831;DHT22;397;50.564;7.272;2023-05-07T11:26:05;24.10;99.90
831;DHT22;397;50.564;7.272;2023-05-07T11:28:41;24.10;99.90
831;DHT22;397;50.564;7.272;2023-05-07T11:31:10;24.10;99.00
831;DHT22;397;50.564;7.272;2023-05-07T11:33:38;24.00;99.80
831;DHT22;397;50.564;7.272;2023-05-07T11:36:07;24.20;99.60
831;DHT22;397;50.564;7.272;2023-05-07T11:38:36;24.20;97.00
831;DHT22;397;50.564;7.272;2023-05-07T11:41:05;24.30;91.60
831;DHT22;397;50.564;7.272;2023-05-07T11:43:33;24.10;91.30
831;DHT22;397;50.564;7.272;2023-05-07T11:48:36;24.20;91.40
831;DHT22;397;50.564;7.272;2023-05-07T11:51:05;24.10;92.10
831;DHT22;397;50.564;7.272;2023-05-07T11:53:42;24.20;93.00
831;DHT22;397;50.564;7.272;2023-05-07T11:56:29;24.20;91.30
831;DHT22;397;50.564;7.272;2023-05-07T11:58:58;24.20;90.50
831;DHT22;397;50.564;7.272;2023-05-07T12:01:26;24.20;90.70
831;DHT22;397;50.564;7.272;2023-05-07T12:03:53;24.20;90.50
831;DHT22;397;50.564;7.272;2023-05-07T12:06:40;24.30;91.70
831;DHT22;397;50.564;7.272;2023-05-07T12:09:07;24.30;88.30
831;DHT22;397;50.564;7.272;2023-05-07T12:11:37;24.10;84.50
831;DHT22;397;50.564;7.272;2023-05-07T12:14:06;24.10;83.10
831;DHT22;397;50.564;7.272;2023-05-07T12:16:33;24.30;83.60
831;DHT22;397;50.564;7.272;2023-05-07T12:19:01;24.10;74.20
831;DHT22;397;50.564;7.272;2023-05-07T12:21:29;24.10;78.20
831;DHT22;397;50.564;7.272;2023-05-07T12:23:57;24.10;78.10
831;DHT22;397;50.564;7.272;2023-05-07T12:26:24;24.40;79.40
831;DHT22;397;50.564;7.272;2023-05-07T12:28:52;24.60;78.50
831;DHT22;397;50.564;7.272;2023-05-07T12:31:19;24.80;73.80
831;DHT22;397;50.564;7.272;2023-05-07T12:33:47;24.90;73.80
831;DHT22;397;50.564;7.272;2023-05-07T12:36:15;25.00;71.90
831;DHT22;397;50.564;7.272;2023-05-07T12:38:43;25.30;72.70
831;DHT22;397;50.564;7.272;2023-05-07T12:41:11;25.20;70.50
831;DHT22;397;50.564;7.272;2023-05-07T12:43:45;25.20;70.70
831;DHT22;397;50.564;7.272;2023-05-07T12:46:13;25.40;73.10
831;DHT22;397;50.564;7.272;2023-05-07T12:48:45;25.50;74.80
831;DHT22;397;50.564;7.272;2023-05-07T12:51:13;25.60;71.50
831;DHT22;397;50.564;7.272;2023-05-07T12:53:42;25.60;68.80
831;DHT22;397;50.564;7.272;2023-05-07T12:56:10;25.50;69.60
831;DHT22;397;50.564;7.272;2023-05-07T12:58:37;25.40;70.50
831;DHT22;397;50.564;7.272;2023-05-07T13:01:06;25.60;72.20
831;DHT22;397;50.564;7.272;2023-05-07T13:03:37;25.60;70.10
831;DHT22;397;50.564;7.272;2023-05-07T13:06:09;25.60;71.00
831;DHT22;397;50.564;7.272;2023-05-07T13:08:40;25.40;73.40
831;DHT22;397;50.564;7.272;2023-05-07T13:11:10;25.30;73.70
831;DHT22;397;50.564;7.272;2023-05-07T13:13:40;25.00;74.20
831;DHT22;397;50.564;7.272;2023-05-07T13:16:09;24.90;76.10
831;DHT22;397;50.564;7.272;2023-05-07T13:18:38;24.90;76.70
831;DHT22;397;50.564;7.272;2023-05-07T13:21:06;24.70;77.30
831;DHT22;397;50.564;7.272;2023-05-07T13:23:34;24.50;77.70
831;DHT22;397;50.564;7.272;2023-05-07T13:26:01;24.20;77.40
831;DHT22;397;50.564;7.272;2023-05-07T13:28:29;24.00;80.70
831;DHT22;397;50.564;7.272;2023-05-07T13:30:57;24.00;84.10
831;DHT22;397;50.564;7.272;2023-05-07T13:33:24;23.90;84.90
831;DHT22;397;50.564;7.272;2023-05-07T13:35:52;23.70;85.90
831;DHT22;397;50.564;7.272;2023-05-07T13:38:19;23.80;89.50
831;DHT22;397;50.564;7.272;2023-05-07T13:40:47;23.70;89.90
831;DHT22;397;50.564;7.272;2023-05-07T13:43:14;23.70;91.30
831;DHT22;397;50.564;7.272;2023-05-07T13:45:44;23.60;89.80
831;DHT22;397;50.564;7.272;2023-05-07T13:48:11;23.80;90.00
831;DHT22;397;50.564;7.272;2023-05-07T13:50:39;23.80;87.30
831;DHT22;397;50.564;7.272;2023-05-07T13:53:08;23.80;86.90
831;DHT22;397;50.564;7.272;2023-05-07T13:55:35;23.90;88.40
831;DHT22;397;50.564;7.272;2023-05-07T13:58:04;23.90;88.90
831;DHT22;397;50.564;7.272;2023-05-07T14:00:31;24.00;89.10
831;DHT22;397;50.564;7.272;2023-05-07T14:02:59;23.90;89.80
831;DHT22;397;50.564;7.272;2023-05-07T14:05:26;23.90;90.60
831;DHT22;397;50.564;7.272;2023-05-07T14:08:00;24.10;89.20
831;DHT22;397;50.564;7.272;2023-05-07T14:10:27;23.90;90.40
831;DHT22;397;50.564;7.272;2023-05-07T14:12:55;23.80;89.20
831;DHT22;397;50.564;7.272;2023-05-07T14:15:22;23.70;90.90
831;DHT22;397;50.564;7.272;2023-05-07T14:17:50;23.40;94.10
831;DHT22;397;50.564;7.272;2023-05-07T14:20:17;23.40;94.80
831;DHT22;397;50.564;7.272;2023-05-07T14:23:04;23.40;95.80
831;DHT22;397;50.564;7.272;2023-05-07T14:25:33;23.20;96.40
831;DHT22;397;50.564;7.272;2023-05-07T14:28:00;22.90;99.90
831;DHT22;397;50.564;7.272;2023-05-07T14:30:27;22.80;99.90
831;DHT22;397;50.564;7.272;2023-05-07T14:32:55;22.70;99.90
831;DHT22;397;50.564;7.272;2023-05-07T14:35:23;22.50;99.90
831;DHT22;397;50.564;7.272;2023-05-07T14:37:50;22.40;99.90
831;DHT22;397;50.564;7.272;2023-05-07T14:40:18;22.40;99.90
831;DHT22;397;50.564;7.272;2023-05-07T14:42:45;22.10;99.90
831;DHT22;397;50.564;7.272;2023-05-07T14:45:13;21.90;99.90
831;DHT22;397;50.564;7.272;2023-05-07T14:47:40;22.00;99.90
831;DHT22;397;50.564;7.272;2023-05-07T14:50:08;21.90;99.90
831;DHT22;397;50.564;7.272;2023-05-07T14:52:36;21.80;99.90
831;DHT22;397;50.564;7.272;2023-05-07T14:55:03;21.80;99.90
831;DHT22;397;50.564;7.272;2023-05-07T14:57:31;21.50;99.90
831;DHT22;397;50.564;7.272;2023-05-07T15:00:03;21.40;99.90
831;DHT22;397;50.564;7.272;2023-05-07T15:02:31;21.30;99.90
831;DHT22;397;50.564;7.272;2023-05-07T15:04:59;21.30;99.90
831;DHT22;397;50.564;7.272;2023-05-07T15:07:27;21.10;99.90
831;DHT22;397;50.564;7.272;2023-05-07T15:09:54;21.10;99.90
831;DHT22;397;50.564;7.272;2023-05-07T15:12:22;21.00;99.90
831;DHT22;397;50.564;7.272;2023-05-07T15:14:50;20.90;99.90
831;DHT22;397;50.564;7.272;2023-05-07T15:17:17;20.70;99.90
831;DHT22;397;50.564;7.272;2023-05-07T15:19:45;20.30;99.90
831;DHT22;397;50.564;7.272;2023-05-07T15:22:12;20.20;99.90
831;DHT22;397;50.564;7.272;2023-05-07T15:24:40;19.60;99.90
831;DHT22;397;50.564;7.272;2023-05-07T15:27:08;19.40;99.90
831;DHT22;397;50.564;7.272;2023-05-07T15:29:35;19.30;99.90
831;DHT22;397;50.564;7.272;2023-05-07T15:32:03;19.20;99.90
831;DHT22;397;50.564;7.272;2023-05-07T15:34:31;18.80;99.90
831;DHT22;397;50.564;7.272;2023-05-07T15:36:58;18.50;99.90
831;DHT22;397;50.564;7.272;2023-05-07T15:39:26;18.30;99.90
831;DHT22;397;50.564;7.272;2023-05-07T15:41:53;18.30;99.90
831;DHT22;397;50.564;7.272;2023-05-07T15:44:21;18.30;99.90
831;DHT22;397;50.564;7.272;2023-05-07T15:46:48;18.40;99.90
831;DHT22;397;50.564;7.272;2023-05-07T15:49:16;18.20;99.90
831;DHT22;397;50.564;7.272;2023-05-07T15:51:43;18.10;99.90
831;DHT22;397;50.564;7.272;2023-05-07T15:54:11;18.00;99.90
831;DHT22;397;50.564;7.272;2023-05-07T15:56:38;18.00;99.90
831;DHT22;397;50.564;7.272;2023-05-07T15:59:06;18.00;99.90
831;DHT22;397;50.564;7.272;2023-05-07T16:01:35;18.10;99.90
831;DHT22;397;50.564;7.272;2023-05-07T16:04:03;17.90;99.90
831;DHT22;397;50.564;7.272;2023-05-07T16:06:31;17.90;99.90
831;DHT22;397;50.564;7.272;2023-05-07T16:08:58;17.90;99.90
831;DHT22;397;50.564;7.272;2023-05-07T16:11:26;18.00;99.90
831;DHT22;397;50.564;7.272;2023-05-07T16:13:55;18.00;99.90
831;DHT22;397;50.564;7.272;2023-05-07T16:16:25;17.70;99.90
831;DHT22;397;50.564;7.272;2023-05-07T16:18:54;17.60;99.90
831;DHT22;397;50.564;7.272;2023-05-07T16:21:22;17.70;99.90
831;DHT22;397;50.564;7.272;2023-05-07T16:23:50;17.70;99.90
831;DHT22;397;50.564;7.272;2023-05-07T16:26:17;17.30;99.90
831;DHT22;397;50.564;7.272;2023-05-07T16:28:45;17.10;99.90
831;DHT22;397;50.564;7.272;2023-05-07T16:31:12;17.00;99.90
831;DHT22;397;50.564;7.272;2023-05-07T16:33:40;16.80;99.90
831;DHT22;397;50.564;7.272;2023-05-07T16:36:07;16.80;99.90
831;DHT22;397;50.564;7.272;2023-05-07T16:38:35;16.90;99.90
831;DHT22;397;50.564;7.272;2023-05-07T16:41:04;16.80;99.90
831;DHT22;397;50.564;7.272;2023-05-07T16:43:34;17.00;99.90
831;DHT22;397;50.564;7.272;2023-05-07T16:46:02;17.10;99.90
831;DHT22;397;50.564;7.272;2023-05-07T16:48:29;17.10;99.90
831;DHT22;397;50.564;7.272;2023-05-07T16:50:57;17.10;99.90
831;DHT22;397;50.564;7.272;2023-05-07T16:53:25;17.10;99.90
831;DHT22;397;50.564;7.272;2023-05-07T16:55:52;17.10;99.90
831;DHT22;397;50.564;7.272;2023-05-07T16:58:22;17.20;99.90
831;DHT22;397;50.564;7.272;2023-05-07T17:00:50;17.10;99.90
831;DHT22;397;50.564;7.272;2023-05-07T17:03:18;17.00;99.90
831;DHT22;397;50.564;7.272;2023-05-07T17:05:46;16.80;99.90